sensor_id;sensor_type;location;lat;lon;timestamp;P1;durP1;ratioP1;P2;durP2;ratioP2
7263;SDS011;3673;52.480;13.348;2022-12-29T00:01:36;8.90;;;2.40;;
7263;SDS011;3673;52.480;13.348;2022-12-29T00:04:04;4.15;;;1.73;;
7263;SDS011;3673;52.480;13.348;2022-12-29T00:06:31;5.97;;;2.10;;
7263;SDS011;3673;52.480;13.348;2022-12-29T00:08:57;5.90;;;2.90;;
7263;SDS011;3673;52.480;13.348;2022-12-29T00:11:25;5.63;;;2.33;;
7263;SDS011;3673;52.480;13.348;2022-12-29T00:13:54;4.43;;;2.25;;
7263;SDS011;3673;52.480;13.348;2022-12-29T00:16:40;4.38;;;1.73;;
7263;SDS011;3673;52.480;13.348;2022-12-29T00:19:09;3.72;;;1.52;;
7263;SDS011;3673;52.480;13.348;2022-12-29T00:21:57;3.33;;;1.70;;
7263;SDS011;3673;52.480;13.348;2022-12-29T00:24:56;3.63;;;1.70;;
7263;SDS011;3673;52.480;13.348;2022-12-29T00:27:41;4.65;;;1.30;;
7263;SDS011;3673;52.480;13.348;2022-12-29T00:30:27;2.72;;;1.70;;
7263;SDS011;3673;52.480;13.348;2022-12-29T00:33:12;5.65;;;2.20;;
7263;SDS011;3673;52.480;13.348;2022-12-29T00:35:59;2.83;;;1.60;;
7263;SDS011;3673;52.480;13.348;2022-12-29T00:38:30;1.83;;;1.60;;
7263;SDS011;3673;52.480;13.348;2022-12-29T00:41:16;5.20;;;1.98;;
7263;SDS011;3673;52.480;13.348;2022-12-29T00:44:01;5.38;;;1.77;;
7263;SDS011;3673;52.480;13.348;2022-12-29T00:46:32;8.82;;;1.58;;
7263;SDS011;3673;52.480;13.348;2022-12-29T00:49:00;5.18;;;1.80;;
7263;SDS011;3673;52.480;13.348;2022-12-29T00:51:42;5.07;;;1.85;;
7263;SDS011;3673;52.480;13.348;2022-12-29T00:54:09;2.05;;;1.38;;
7263;SDS011;3673;52.480;13.348;2022-12-29T00:56:36;2.03;;;1.60;;
7263;SDS011;3673;52.480;13.348;2022-12-29T00:59:03;2.05;;;1.80;;
7263;SDS011;3673;52.480;13.348;2022-12-29T01:01:33;2.17;;;1.70;;
7263;SDS011;3673;52.480;13.348;2022-12-29T01:04:01;5.50;;;1.52;;
7263;SDS011;3673;52.480;13.348;2022-12-29T01:06:28;2.97;;;1.55;;
7263;SDS011;3673;52.480;13.348;2022-12-29T01:08:55;5.90;;;1.80;;
7263;SDS011;3673;52.480;13.348;2022-12-29T01:11:36;3.20;;;1.60;;
7263;SDS011;3673;52.480;13.348;2022-12-29T01:14:03;4.35;;;1.60;;
7263;SDS011;3673;52.480;13.348;2022-12-29T01:16:30;1.98;;;1.50;;
7263;SDS011;3673;52.480;13.348;2022-12-29T01:18:58;2.05;;;1.38;;
7263;SDS011;3673;52.480;13.348;2022-12-29T01:21:25;4.40;;;2.22;;
7263;SDS011;3673;52.480;13.348;2022-12-29T01:23:52;2.38;;;1.65;;
7263;SDS011;3673;52.480;13.348;2022-12-29T01:26:19;2.30;;;1.90;;
7263;SDS011;3673;52.480;13.348;2022-12-29T01:28:46;2.55;;;1.70;;
7263;SDS011;3673;52.480;13.348;2022-12-29T01:31:13;2.45;;;1.35;;
7263;SDS011;3673;52.480;13.348;2022-12-29T01:33:41;3.08;;;1.55;;
7263;SDS011;3673;52.480;13.348;2022-12-29T01:36:10;2.42;;;1.65;;
7263;SDS011;3673;52.480;13.348;2022-12-29T01:38:39;2.90;;;1.35;;
7263;SDS011;3673;52.480;13.348;2022-12-29T01:41:07;2.42;;;1.58;;
7263;SDS011;3673;52.480;13.348;2022-12-29T01:43:40;2.60;;;2.10;;
7263;SDS011;3673;52.480;13.348;2022-12-29T01:46:13;2.63;;;1.65;;
7263;SDS011;3673;52.480;13.348;2022-12-29T01:48:53;3.92;;;2.05;;
7263;SDS011;3673;52.480;13.348;2022-12-29T01:51:25;4.38;;;1.77;;
7263;SDS011;3673;52.480;13.348;2022-12-29T01:53:54;3.78;;;1.50;;
7263;SDS011;3673;52.480;13.348;2022-12-29T01:56:24;3.25;;;1.45;;
7263;SDS011;3673;52.480;13.348;2022-12-29T01:58:53;2.85;;;1.50;;
7263;SDS011;3673;52.480;13.348;2022-12-29T02:01:24;5.03;;;1.60;;
7263;SDS011;3673;52.480;13.348;2022-12-29T02:03:51;2.00;;;1.40;;
7263;SDS011;3673;52.480;13.348;2022-12-29T02:06:19;5.22;;;1.45;;
7263;SDS011;3673;52.480;13.348;2022-12-29T02:08:50;3.28;;;1.38;;
7263;SDS011;3673;52.480;13.348;2022-12-29T02:11:20;3.30;;;1.40;;
7263;SDS011;3673;52.480;13.348;2022-12-29T02:13:49;2.00;;;1.45;;
7263;SDS011;3673;52.480;13.348;2022-12-29T02:16:23;3.22;;;1.60;;
7263;SDS011;3673;52.480;13.348;2022-12-29T02:19:07;4.60;;;1.48;;
7263;SDS011;3673;52.480;13.348;2022-12-29T02:22:09;3.05;;;1.80;;
7263;SDS011;3673;52.480;13.348;2022-12-29T02:24:51;1.92;;;1.35;;
7263;SDS011;3673;52.480;13.348;2022-12-29T02:34:00;2.42;;;1.50;;
7263;SDS011;3673;52.480;13.348;2022-12-29T02:36:42;2.65;;;1.50;;
7263;SDS011;3673;52.480;13.348;2022-12-29T02:39:19;2.15;;;1.30;;
7263;SDS011;3673;52.480;13.348;2022-12-29T02:41:56;2.92;;;1.90;;
7263;SDS011;3673;52.480;13.348;2022-12-29T02:44:31;2.63;;;1.55;;
7263;SDS011;3673;52.480;13.348;2022-12-29T02:47:08;1.70;;;1.30;;
7263;SDS011;3673;52.480;13.348;2022-12-29T02:49:44;2.75;;;1.35;;
7263;SDS011;3673;52.480;13.348;2022-12-29T02:52:17;1.48;;;1.30;;
7263;SDS011;3673;52.480;13.348;2022-12-29T02:54:49;3.25;;;1.42;;
7263;SDS011;3673;52.480;13.348;2022-12-29T02:57:27;4.40;;;1.35;;
7263;SDS011;3673;52.480;13.348;2022-12-29T02:59:58;1.95;;;1.75;;
7263;SDS011;3673;52.480;13.348;2022-12-29T03:02:42;1.90;;;1.40;;
7263;SDS011;3673;52.480;13.348;2022-12-29T03:05:44;3.78;;;1.90;;
7263;SDS011;3673;52.480;13.348;2022-12-29T03:08:28;2.63;;;1.38;;
7263;SDS011;3673;52.480;13.348;2022-12-29T03:13:52;4.78;;;1.70;;
7263;SDS011;3673;52.480;13.348;2022-12-29T03:16:46;2.03;;;1.33;;
7263;SDS011;3673;52.480;13.348;2022-12-29T03:19:19;4.95;;;1.73;;
7263;SDS011;3673;52.480;13.348;2022-12-29T03:21:49;1.45;;;1.30;;
7263;SDS011;3673;52.480;13.348;2022-12-29T03:24:39;1.88;;;1.60;;
7263;SDS011;3673;52.480;13.348;2022-12-29T03:27:11;2.20;;;1.40;;
7263;SDS011;3673;52.480;13.348;2022-12-29T03:29:46;3.38;;;1.13;;
7263;SDS011;3673;52.480;13.348;2022-12-29T03:32:19;1.48;;;1.30;;
7263;SDS011;3673;52.480;13.348;2022-12-29T03:34:50;4.32;;;1.67;;
7263;SDS011;3673;52.480;13.348;2022-12-29T03:37:18;2.00;;;1.25;;
7263;SDS011;3673;52.480;13.348;2022-12-29T03:39:49;2.42;;;1.85;;
7263;SDS011;3673;52.480;13.348;2022-12-29T03:42:17;2.22;;;1.40;;
7263;SDS011;3673;52.480;13.348;2022-12-29T03:44:48;2.83;;;1.45;;
7263;SDS011;3673;52.480;13.348;2022-12-29T03:47:21;1.88;;;1.52;;
7263;SDS011;3673;52.480;13.348;2022-12-29T03:49:51;2.90;;;1.60;;
7263;SDS011;3673;52.480;13.348;2022-12-29T03:52:18;1.67;;;1.25;;
7263;SDS011;3673;52.480;13.348;2022-12-29T03:54:45;3.70;;;1.73;;
7263;SDS011;3673;52.480;13.348;2022-12-29T03:57:12;2.33;;;1.27;;
7263;SDS011;3673;52.480;13.348;2022-12-29T03:59:39;3.00;;;1.50;;
7263;SDS011;3673;52.480;13.348;2022-12-29T04:02:05;1.95;;;1.20;;
7263;SDS011;3673;52.480;13.348;2022-12-29T04:04:32;1.75;;;1.30;;
7263;SDS011;3673;52.480;13.348;2022-12-29T04:07:00;1.48;;;1.15;;
7263;SDS011;3673;52.480;13.348;2022-12-29T04:09:27;1.95;;;1.10;;
7263;SDS011;3673;52.480;13.348;2022-12-29T04:11:54;1.75;;;1.38;;
7263;SDS011;3673;52.480;13.348;2022-12-29T04:14:21;2.60;;;1.70;;
7263;SDS011;3673;52.480;13.348;2022-12-29T04:16:48;3.85;;;1.40;;
7263;SDS011;3673;52.480;13.348;2022-12-29T04:19:15;4.03;;;1.58;;
7263;SDS011;3673;52.480;13.348;2022-12-29T04:21:41;1.23;;;1.13;;
7263;SDS011;3673;52.480;13.348;2022-12-29T04:24:09;2.25;;;1.48;;
7263;SDS011;3673;52.480;13.348;2022-12-29T04:26:37;3.42;;;1.63;;
7263;SDS011;3673;52.480;13.348;2022-12-29T04:29:04;2.33;;;1.50;;
7263;SDS011;3673;52.480;13.348;2022-12-29T04:31:31;1.70;;;1.30;;
7263;SDS011;3673;52.480;13.348;2022-12-29T04:33:58;1.67;;;1.30;;
7263;SDS011;3673;52.480;13.348;2022-12-29T04:36:25;1.33;;;1.13;;
7263;SDS011;3673;52.480;13.348;2022-12-29T04:38:52;3.00;;;1.55;;
7263;SDS011;3673;52.480;13.348;2022-12-29T04:41:20;2.53;;;1.10;;
7263;SDS011;3673;52.480;13.348;2022-12-29T04:43:47;2.50;;;1.42;;
7263;SDS011;3673;52.480;13.348;2022-12-29T04:46:13;3.17;;;1.52;;
7263;SDS011;3673;52.480;13.348;2022-12-29T04:48:40;2.55;;;1.50;;
7263;SDS011;3673;52.480;13.348;2022-12-29T04:51:07;3.25;;;1.58;;
7263;SDS011;3673;52.480;13.348;2022-12-29T04:53:33;1.60;;;1.25;;
7263;SDS011;3673;52.480;13.348;2022-12-29T04:56:00;1.98;;;1.40;;
7263;SDS011;3673;52.480;13.348;2022-12-29T04:58:28;4.72;;;1.38;;
7263;SDS011;3673;52.480;13.348;2022-12-29T05:00:55;2.75;;;1.27;;
7263;SDS011;3673;52.480;13.348;2022-12-29T05:03:22;2.85;;;1.17;;
7263;SDS011;3673;52.480;13.348;2022-12-29T05:05:52;2.10;;;1.58;;
7263;SDS011;3673;52.480;13.348;2022-12-29T05:08:19;2.13;;;1.63;;
7263;SDS011;3673;52.480;13.348;2022-12-29T05:10:46;1.90;;;1.25;;
7263;SDS011;3673;52.480;13.348;2022-12-29T05:13:15;1.92;;;1.48;;
7263;SDS011;3673;52.480;13.348;2022-12-29T05:15:46;2.05;;;1.33;;
7263;SDS011;3673;52.480;13.348;2022-12-29T05:18:16;2.75;;;1.35;;
7263;SDS011;3673;52.480;13.348;2022-12-29T05:20:43;2.10;;;1.45;;
7263;SDS011;3673;52.480;13.348;2022-12-29T05:23:10;3.30;;;1.80;;
7263;SDS011;3673;52.480;13.348;2022-12-29T05:25:37;5.10;;;1.70;;
7263;SDS011;3673;52.480;13.348;2022-12-29T05:28:03;1.75;;;1.33;;
7263;SDS011;3673;52.480;13.348;2022-12-29T05:30:30;2.85;;;1.48;;
7263;SDS011;3673;52.480;13.348;2022-12-29T05:32:58;2.47;;;1.65;;
7263;SDS011;3673;52.480;13.348;2022-12-29T05:35:25;3.00;;;1.75;;
7263;SDS011;3673;52.480;13.348;2022-12-29T05:37:52;3.83;;;1.77;;
7263;SDS011;3673;52.480;13.348;2022-12-29T05:40:19;2.65;;;1.65;;
7263;SDS011;3673;52.480;13.348;2022-12-29T05:42:46;2.38;;;1.77;;
7263;SDS011;3673;52.480;13.348;2022-12-29T05:45:12;3.65;;;1.95;;
7263;SDS011;3673;52.480;13.348;2022-12-29T05:47:39;1.90;;;1.30;;
7263;SDS011;3673;52.480;13.348;2022-12-29T05:50:07;2.15;;;1.48;;
7263;SDS011;3673;52.480;13.348;2022-12-29T05:52:34;6.07;;;1.42;;
7263;SDS011;3673;52.480;13.348;2022-12-29T05:55:01;2.95;;;1.25;;
7263;SDS011;3673;52.480;13.348;2022-12-29T05:57:28;3.13;;;1.40;;
7263;SDS011;3673;52.480;13.348;2022-12-29T05:59:55;2.60;;;1.40;;
7263;SDS011;3673;52.480;13.348;2022-12-29T06:02:21;1.88;;;1.55;;
7263;SDS011;3673;52.480;13.348;2022-12-29T06:04:48;4.30;;;1.70;;
7263;SDS011;3673;52.480;13.348;2022-12-29T06:07:16;4.40;;;1.38;;
7263;SDS011;3673;52.480;13.348;2022-12-29T06:09:43;2.65;;;1.40;;
7263;SDS011;3673;52.480;13.348;2022-12-29T06:12:10;3.60;;;1.50;;
7263;SDS011;3673;52.480;13.348;2022-12-29T06:14:37;3.60;;;1.30;;
7263;SDS011;3673;52.480;13.348;2022-12-29T06:17:03;1.20;;;1.08;;
7263;SDS011;3673;52.480;13.348;2022-12-29T06:19:30;1.75;;;1.33;;
7263;SDS011;3673;52.480;13.348;2022-12-29T06:21:57;1.45;;;1.23;;
7263;SDS011;3673;52.480;13.348;2022-12-29T06:24:25;1.95;;;1.33;;
7263;SDS011;3673;52.480;13.348;2022-12-29T06:26:52;1.55;;;1.17;;
7263;SDS011;3673;52.480;13.348;2022-12-29T06:29:18;3.15;;;1.05;;
7263;SDS011;3673;52.480;13.348;2022-12-29T06:31:45;2.03;;;1.38;;
7263;SDS011;3673;52.480;13.348;2022-12-29T06:34:13;2.53;;;1.20;;
7263;SDS011;3673;52.480;13.348;2022-12-29T06:36:40;1.25;;;1.10;;
7263;SDS011;3673;52.480;13.348;2022-12-29T06:39:07;2.35;;;1.45;;
7263;SDS011;3673;52.480;13.348;2022-12-29T06:41:35;4.50;;;1.70;;
7263;SDS011;3673;52.480;13.348;2022-12-29T06:44:02;3.00;;;1.10;;
7263;SDS011;3673;52.480;13.348;2022-12-29T06:46:29;2.88;;;1.48;;
7263;SDS011;3673;52.480;13.348;2022-12-29T06:48:56;2.08;;;1.67;;
7263;SDS011;3673;52.480;13.348;2022-12-29T06:51:23;2.70;;;1.75;;
7263;SDS011;3673;52.480;13.348;2022-12-29T06:53:49;1.77;;;1.50;;
7263;SDS011;3673;52.480;13.348;2022-12-29T06:56:16;2.42;;;2.05;;
7263;SDS011;3673;52.480;13.348;2022-12-29T06:58:44;3.67;;;2.10;;
7263;SDS011;3673;52.480;13.348;2022-12-29T07:01:11;3.78;;;2.80;;
7263;SDS011;3673;52.480;13.348;2022-12-29T07:03:38;4.65;;;3.53;;
7263;SDS011;3673;52.480;13.348;2022-12-29T07:06:07;3.92;;;3.13;;
7263;SDS011;3673;52.480;13.348;2022-12-29T07:08:34;5.35;;;3.75;;
7263;SDS011;3673;52.480;13.348;2022-12-29T07:11:00;3.22;;;2.67;;
7263;SDS011;3673;52.480;13.348;2022-12-29T07:13:27;4.30;;;3.05;;
7263;SDS011;3673;52.480;13.348;2022-12-29T07:15:55;5.68;;;3.50;;
7263;SDS011;3673;52.480;13.348;2022-12-29T07:18:22;4.88;;;2.92;;
7263;SDS011;3673;52.480;13.348;2022-12-29T07:20:49;3.55;;;1.90;;
7263;SDS011;3673;52.480;13.348;2022-12-29T07:23:16;2.30;;;1.90;;
7263;SDS011;3673;52.480;13.348;2022-12-29T07:25:42;3.22;;;2.25;;
7263;SDS011;3673;52.480;13.348;2022-12-29T07:28:09;4.38;;;1.77;;
7263;SDS011;3673;52.480;13.348;2022-12-29T07:30:36;4.13;;;1.40;;
7263;SDS011;3673;52.480;13.348;2022-12-29T07:33:04;2.75;;;1.63;;
7263;SDS011;3673;52.480;13.348;2022-12-29T07:35:32;3.35;;;1.80;;
7263;SDS011;3673;52.480;13.348;2022-12-29T07:37:59;2.00;;;1.08;;
7263;SDS011;3673;52.480;13.348;2022-12-29T07:40:26;6.63;;;2.85;;
7263;SDS011;3673;52.480;13.348;2022-12-29T07:42:53;4.30;;;1.77;;
7263;SDS011;3673;52.480;13.348;2022-12-29T07:45:19;8.23;;;1.60;;
7263;SDS011;3673;52.480;13.348;2022-12-29T07:47:47;2.45;;;1.42;;
7263;SDS011;3673;52.480;13.348;2022-12-29T07:50:16;3.17;;;1.52;;
7263;SDS011;3673;52.480;13.348;2022-12-29T07:52:43;2.20;;;1.30;;
7263;SDS011;3673;52.480;13.348;2022-12-29T07:55:12;1.90;;;1.27;;
7263;SDS011;3673;52.480;13.348;2022-12-29T07:57:38;2.40;;;1.60;;
7263;SDS011;3673;52.480;13.348;2022-12-29T08:00:06;2.47;;;1.40;;
7263;SDS011;3673;52.480;13.348;2022-12-29T08:02:34;5.45;;;1.65;;
7263;SDS011;3673;52.480;13.348;2022-12-29T08:05:01;5.75;;;1.67;;
7263;SDS011;3673;52.480;13.348;2022-12-29T08:07:29;1.75;;;1.25;;
7263;SDS011;3673;52.480;13.348;2022-12-29T08:09:56;1.65;;;1.30;;
7263;SDS011;3673;52.480;13.348;2022-12-29T08:12:23;1.77;;;1.10;;
7263;SDS011;3673;52.480;13.348;2022-12-29T08:14:50;2.28;;;1.30;;
7263;SDS011;3673;52.480;13.348;2022-12-29T08:17:16;3.47;;;1.27;;
7263;SDS011;3673;52.480;13.348;2022-12-29T08:19:43;5.28;;;1.70;;
7263;SDS011;3673;52.480;13.348;2022-12-29T08:22:10;2.53;;;1.38;;
7263;SDS011;3673;52.480;13.348;2022-12-29T08:24:40;3.92;;;1.67;;
7263;SDS011;3673;52.480;13.348;2022-12-29T08:27:07;2.47;;;1.42;;
7263;SDS011;3673;52.480;13.348;2022-12-29T08:29:34;1.92;;;1.30;;
7263;SDS011;3673;52.480;13.348;2022-12-29T08:32:01;3.03;;;1.35;;
7263;SDS011;3673;52.480;13.348;2022-12-29T08:34:29;3.75;;;1.23;;
7263;SDS011;3673;52.480;13.348;2022-12-29T08:36:56;2.20;;;1.48;;
7263;SDS011;3673;52.480;13.348;2022-12-29T08:39:23;3.33;;;1.27;;
7263;SDS011;3673;52.480;13.348;2022-12-29T08:41:54;3.88;;;0.88;;
7263;SDS011;3673;52.480;13.348;2022-12-29T08:44:21;1.92;;;1.50;;
7263;SDS011;3673;52.480;13.348;2022-12-29T08:46:48;2.22;;;1.40;;
7263;SDS011;3673;52.480;13.348;2022-12-29T08:49:15;1.42;;;1.15;;
7263;SDS011;3673;52.480;13.348;2022-12-29T08:51:42;2.65;;;1.00;;
7263;SDS011;3673;52.480;13.348;2022-12-29T08:54:09;1.27;;;1.17;;
7263;SDS011;3673;52.480;13.348;2022-12-29T08:56:36;2.83;;;2.08;;
7263;SDS011;3673;52.480;13.348;2022-12-29T08:59:04;1.70;;;1.25;;
7263;SDS011;3673;52.480;13.348;2022-12-29T09:01:31;1.38;;;1.27;;
7263;SDS011;3673;52.480;13.348;2022-12-29T09:04:01;1.85;;;1.30;;
7263;SDS011;3673;52.480;13.348;2022-12-29T09:06:28;5.28;;;1.00;;
7263;SDS011;3673;52.480;13.348;2022-12-29T09:08:55;2.00;;;1.08;;
7263;SDS011;3673;52.480;13.348;2022-12-29T09:11:23;2.80;;;1.17;;
7263;SDS011;3673;52.480;13.348;2022-12-29T09:13:51;3.38;;;1.20;;
7263;SDS011;3673;52.480;13.348;2022-12-29T09:16:20;1.88;;;1.30;;
7263;SDS011;3673;52.480;13.348;2022-12-29T09:18:49;2.03;;;1.40;;
7263;SDS011;3673;52.480;13.348;2022-12-29T09:21:16;4.43;;;1.65;;
7263;SDS011;3673;52.480;13.348;2022-12-29T09:23:43;1.48;;;1.13;;
7263;SDS011;3673;52.480;13.348;2022-12-29T09:26:10;2.85;;;1.20;;
7263;SDS011;3673;52.480;13.348;2022-12-29T09:28:37;6.45;;;1.75;;
7263;SDS011;3673;52.480;13.348;2022-12-29T09:31:05;4.00;;;3.25;;
7263;SDS011;3673;52.480;13.348;2022-12-29T09:33:33;6.45;;;5.80;;
7263;SDS011;3673;52.480;13.348;2022-12-29T09:36:01;7.18;;;6.10;;
7263;SDS011;3673;52.480;13.348;2022-12-29T09:38:28;3.85;;;3.45;;
7263;SDS011;3673;52.480;13.348;2022-12-29T09:40:57;3.60;;;2.50;;
7263;SDS011;3673;52.480;13.348;2022-12-29T09:46:28;27.27;;;13.65;;
7263;SDS011;3673;52.480;13.348;2022-12-29T09:49:05;86.28;;;44.20;;
7263;SDS011;3673;52.480;13.348;2022-12-29T09:51:40;24.45;;;13.95;;
7263;SDS011;3673;52.480;13.348;2022-12-29T09:54:19;6.22;;;2.30;;
7263;SDS011;3673;52.480;13.348;2022-12-29T09:57:03;5.22;;;2.72;;
7263;SDS011;3673;52.480;13.348;2022-12-29T09:59:38;33.28;;;20.15;;
7263;SDS011;3673;52.480;13.348;2022-12-29T10:02:13;23.50;;;13.93;;
7263;SDS011;3673;52.480;13.348;2022-12-29T10:04:56;36.35;;;22.63;;
7263;SDS011;3673;52.480;13.348;2022-12-29T10:07:26;50.42;;;31.70;;
7263;SDS011;3673;52.480;13.348;2022-12-29T10:10:06;24.63;;;16.27;;
7263;SDS011;3673;52.480;13.348;2022-12-29T10:12:58;4.95;;;3.42;;
7263;SDS011;3673;52.480;13.348;2022-12-29T10:15:44;8.77;;;5.10;;
7263;SDS011;3673;52.480;13.348;2022-12-29T10:18:30;6.03;;;3.08;;
7263;SDS011;3673;52.480;13.348;2022-12-29T10:21:28;9.65;;;5.68;;
7263;SDS011;3673;52.480;13.348;2022-12-29T10:24:09;22.05;;;8.93;;
7263;SDS011;3673;52.480;13.348;2022-12-29T10:26:39;16.08;;;6.00;;
7263;SDS011;3673;52.480;13.348;2022-12-29T10:29:12;11.00;;;4.45;;
7263;SDS011;3673;52.480;13.348;2022-12-29T10:31:43;8.70;;;3.63;;
7263;SDS011;3673;52.480;13.348;2022-12-29T10:34:15;15.60;;;4.90;;
7263;SDS011;3673;52.480;13.348;2022-12-29T10:36:53;9.88;;;4.18;;
7263;SDS011;3673;52.480;13.348;2022-12-29T10:39:25;4.88;;;2.58;;
7263;SDS011;3673;52.480;13.348;2022-12-29T10:42:00;12.85;;;4.95;;
7263;SDS011;3673;52.480;13.348;2022-12-29T10:44:35;12.70;;;3.92;;
7263;SDS011;3673;52.480;13.348;2022-12-29T10:47:03;13.20;;;4.55;;
7263;SDS011;3673;52.480;13.348;2022-12-29T10:49:34;9.75;;;3.30;;
7263;SDS011;3673;52.480;13.348;2022-12-29T10:52:09;31.05;;;7.97;;
7263;SDS011;3673;52.480;13.348;2022-12-29T10:54:38;6.25;;;2.15;;
7263;SDS011;3673;52.480;13.348;2022-12-29T10:57:11;13.00;;;4.68;;
7263;SDS011;3673;52.480;13.348;2022-12-29T10:59:47;9.07;;;2.40;;
7263;SDS011;3673;52.480;13.348;2022-12-29T11:02:18;33.92;;;7.95;;
7263;SDS011;3673;52.480;13.348;2022-12-29T11:05:19;6.88;;;2.95;;
7263;SDS011;3673;52.480;13.348;2022-12-29T11:08:00;23.15;;;8.57;;
7263;SDS011;3673;52.480;13.348;2022-12-29T11:10:35;11.07;;;3.75;;
7263;SDS011;3673;52.480;13.348;2022-12-29T11:13:10;5.45;;;2.30;;
7263;SDS011;3673;52.480;13.348;2022-12-29T11:15:39;12.20;;;4.30;;
7263;SDS011;3673;52.480;13.348;2022-12-29T11:18:17;63.53;;;10.43;;
7263;SDS011;3673;52.480;13.348;2022-12-29T11:20:47;27.38;;;6.75;;
7263;SDS011;3673;52.480;13.348;2022-12-29T11:23:26;3.00;;;1.30;;
7263;SDS011;3673;52.480;13.348;2022-12-29T11:26:11;11.85;;;3.95;;
7263;SDS011;3673;52.480;13.348;2022-12-29T11:28:46;5.65;;;2.10;;
7263;SDS011;3673;52.480;13.348;2022-12-29T11:31:29;8.85;;;2.33;;
7263;SDS011;3673;52.480;13.348;2022-12-29T11:33:56;4.85;;;1.85;;
7263;SDS011;3673;52.480;13.348;2022-12-29T11:36:23;11.23;;;3.45;;
7263;SDS011;3673;52.480;13.348;2022-12-29T11:38:52;9.82;;;2.80;;
7263;SDS011;3673;52.480;13.348;2022-12-29T11:41:22;4.47;;;1.60;;
7263;SDS011;3673;52.480;13.348;2022-12-29T11:43:51;14.25;;;6.28;;
7263;SDS011;3673;52.480;13.348;2022-12-29T11:46:20;4.05;;;2.13;;
7263;SDS011;3673;52.480;13.348;2022-12-29T11:48:52;2.55;;;1.45;;
7263;SDS011;3673;52.480;13.348;2022-12-29T11:51:23;3.20;;;1.95;;
7263;SDS011;3673;52.480;13.348;2022-12-29T11:53:56;2.63;;;1.25;;
7263;SDS011;3673;52.480;13.348;2022-12-29T11:56:35;1.35;;;0.93;;
7263;SDS011;3673;52.480;13.348;2022-12-29T11:59:24;3.45;;;1.40;;
7263;SDS011;3673;52.480;13.348;2022-12-29T12:02:13;4.13;;;1.13;;
7263;SDS011;3673;52.480;13.348;2022-12-29T12:04:59;1.80;;;1.08;;
7263;SDS011;3673;52.480;13.348;2022-12-29T12:07:37;1.60;;;0.93;;
7263;SDS011;3673;52.480;13.348;2022-12-29T12:10:12;1.77;;;1.00;;
7263;SDS011;3673;52.480;13.348;2022-12-29T12:12:48;0.93;;;0.70;;
7263;SDS011;3673;52.480;13.348;2022-12-29T12:15:22;2.85;;;1.00;;
7263;SDS011;3673;52.480;13.348;2022-12-29T12:17:57;1.92;;;0.85;;
7263;SDS011;3673;52.480;13.348;2022-12-29T12:20:36;1.38;;;0.68;;
7263;SDS011;3673;52.480;13.348;2022-12-29T12:23:17;1.60;;;1.05;;
7263;SDS011;3673;52.480;13.348;2022-12-29T12:25:59;1.35;;;1.05;;
7263;SDS011;3673;52.480;13.348;2022-12-29T12:28:37;2.40;;;0.90;;
7263;SDS011;3673;52.480;13.348;2022-12-29T12:31:16;2.05;;;1.10;;
7263;SDS011;3673;52.480;13.348;2022-12-29T12:33:50;3.20;;;1.57;;
7263;SDS011;3673;52.480;13.348;2022-12-29T12:39:34;2.15;;;1.30;;
7263;SDS011;3673;52.480;13.348;2022-12-29T12:42:18;3.92;;;1.00;;
7263;SDS011;3673;52.480;13.348;2022-12-29T12:45:03;2.20;;;1.13;;
7263;SDS011;3673;52.480;13.348;2022-12-29T12:47:59;3.87;;;0.90;;
7263;SDS011;3673;52.480;13.348;2022-12-29T12:50:46;2.78;;;1.75;;
7263;SDS011;3673;52.480;13.348;2022-12-29T12:53:25;1.52;;;0.88;;
7263;SDS011;3673;52.480;13.348;2022-12-29T12:59:04;3.28;;;0.90;;
7263;SDS011;3673;52.480;13.348;2022-12-29T13:01:42;3.63;;;1.80;;
7263;SDS011;3673;52.480;13.348;2022-12-29T13:07:30;3.90;;;0.98;;
7263;SDS011;3673;52.480;13.348;2022-12-29T13:10:16;2.20;;;1.02;;
7263;SDS011;3673;52.480;13.348;2022-12-29T13:13:03;1.08;;;0.80;;
7263;SDS011;3673;52.480;13.348;2022-12-29T13:15:57;2.33;;;1.08;;
7263;SDS011;3673;52.480;13.348;2022-12-29T13:18:34;1.60;;;0.98;;
7263;SDS011;3673;52.480;13.348;2022-12-29T13:21:12;1.90;;;1.48;;
7263;SDS011;3673;52.480;13.348;2022-12-29T13:23:54;3.10;;;1.05;;
7263;SDS011;3673;52.480;13.348;2022-12-29T13:26:29;9.40;;;1.63;;
7263;SDS011;3673;52.480;13.348;2022-12-29T13:29:03;3.53;;;2.30;;
7263;SDS011;3673;52.480;13.348;2022-12-29T13:31:45;5.00;;;2.15;;
7263;SDS011;3673;52.480;13.348;2022-12-29T13:34:23;1.70;;;1.25;;
7263;SDS011;3673;52.480;13.348;2022-12-29T13:37:03;1.08;;;0.93;;
7263;SDS011;3673;52.480;13.348;2022-12-29T13:39:37;2.53;;;1.58;;
7263;SDS011;3673;52.480;13.348;2022-12-29T13:42:07;2.80;;;1.50;;
7263;SDS011;3673;52.480;13.348;2022-12-29T13:44:35;2.40;;;1.63;;
7263;SDS011;3673;52.480;13.348;2022-12-29T13:47:14;2.70;;;1.38;;
7263;SDS011;3673;52.480;13.348;2022-12-29T13:49:50;2.63;;;1.27;;
7263;SDS011;3673;52.480;13.348;2022-12-29T13:52:20;1.20;;;1.00;;
7263;SDS011;3673;52.480;13.348;2022-12-29T13:55:01;5.22;;;1.33;;
7263;SDS011;3673;52.480;13.348;2022-12-29T13:57:45;1.77;;;1.02;;
7263;SDS011;3673;52.480;13.348;2022-12-29T14:00:19;1.30;;;0.95;;
7263;SDS011;3673;52.480;13.348;2022-12-29T14:02:56;4.28;;;1.20;;
7263;SDS011;3673;52.480;13.348;2022-12-29T14:05:45;2.28;;;1.35;;
7263;SDS011;3673;52.480;13.348;2022-12-29T14:08:37;2.22;;;1.48;;
7263;SDS011;3673;52.480;13.348;2022-12-29T14:11:05;5.40;;;1.23;;
7263;SDS011;3673;52.480;13.348;2022-12-29T14:13:37;3.40;;;1.48;;
7263;SDS011;3673;52.480;13.348;2022-12-29T14:16:06;3.03;;;1.30;;
7263;SDS011;3673;52.480;13.348;2022-12-29T14:18:42;2.67;;;1.73;;
7263;SDS011;3673;52.480;13.348;2022-12-29T14:21:11;5.13;;;3.17;;
7263;SDS011;3673;52.480;13.348;2022-12-29T14:23:48;3.95;;;2.47;;
7263;SDS011;3673;52.480;13.348;2022-12-29T14:26:33;2.90;;;1.50;;
7263;SDS011;3673;52.480;13.348;2022-12-29T14:29:15;2.60;;;1.63;;
7263;SDS011;3673;52.480;13.348;2022-12-29T14:38:06;3.25;;;1.80;;
7263;SDS011;3673;52.480;13.348;2022-12-29T14:40:41;3.30;;;1.63;;
7263;SDS011;3673;52.480;13.348;2022-12-29T14:43:11;5.05;;;2.17;;
7263;SDS011;3673;52.480;13.348;2022-12-29T14:45:45;6.53;;;2.65;;
7263;SDS011;3673;52.480;13.348;2022-12-29T14:48:22;2.47;;;1.48;;
7263;SDS011;3673;52.480;13.348;2022-12-29T14:51:19;3.45;;;2.10;;
7263;SDS011;3673;52.480;13.348;2022-12-29T14:53:57;3.92;;;2.05;;
7263;SDS011;3673;52.480;13.348;2022-12-29T14:56:25;5.80;;;2.38;;
7263;SDS011;3673;52.480;13.348;2022-12-29T14:58:56;3.53;;;2.05;;
7263;SDS011;3673;52.480;13.348;2022-12-29T15:01:32;4.70;;;2.50;;
7263;SDS011;3673;52.480;13.348;2022-12-29T15:04:13;6.28;;;2.60;;
7263;SDS011;3673;52.480;13.348;2022-12-29T15:06:45;4.43;;;2.38;;
7263;SDS011;3673;52.480;13.348;2022-12-29T15:09:17;4.22;;;2.33;;
7263;SDS011;3673;52.480;13.348;2022-12-29T15:11:55;5.50;;;2.88;;
7263;SDS011;3673;52.480;13.348;2022-12-29T15:14:31;5.50;;;2.53;;
7263;SDS011;3673;52.480;13.348;2022-12-29T15:17:08;4.53;;;2.28;;
7263;SDS011;3673;52.480;13.348;2022-12-29T15:19:47;2.85;;;1.55;;
7263;SDS011;3673;52.480;13.348;2022-12-29T15:22:14;6.18;;;1.60;;
7263;SDS011;3673;52.480;13.348;2022-12-29T15:24:41;5.82;;;1.65;;
7263;SDS011;3673;52.480;13.348;2022-12-29T15:27:10;7.43;;;2.25;;
7263;SDS011;3673;52.480;13.348;2022-12-29T15:29:41;3.10;;;1.48;;
7263;SDS011;3673;52.480;13.348;2022-12-29T15:32:17;3.78;;;1.67;;
7263;SDS011;3673;52.480;13.348;2022-12-29T15:34:47;3.75;;;1.70;;
7263;SDS011;3673;52.480;13.348;2022-12-29T15:37:17;4.70;;;1.90;;
7263;SDS011;3673;52.480;13.348;2022-12-29T15:39:47;4.18;;;2.40;;
7263;SDS011;3673;52.480;13.348;2022-12-29T15:42:32;4.63;;;3.20;;
7263;SDS011;3673;52.480;13.348;2022-12-29T15:45:30;8.73;;;3.70;;
7263;SDS011;3673;52.480;13.348;2022-12-29T15:48:02;3.50;;;2.38;;
7263;SDS011;3673;52.480;13.348;2022-12-29T15:50:33;4.53;;;2.70;;
7263;SDS011;3673;52.480;13.348;2022-12-29T15:53:02;7.28;;;2.53;;
7263;SDS011;3673;52.480;13.348;2022-12-29T15:55:36;4.43;;;2.72;;
7263;SDS011;3673;52.480;13.348;2022-12-29T15:58:17;4.70;;;3.15;;
7263;SDS011;3673;52.480;13.348;2022-12-29T16:00:47;5.68;;;2.55;;